Time;durP1;ratioP1;P1;durP2;ratioP2;P2;SDS_P1;SDS_P2;PMS_P1;PMS_P2;Temp;Humidity;BMP_temperature;BMP_pressure;BME280_temperature;BME280_humidity;BME280_pressure;Samples;Min_cycle;Max_cycle;Signal;HPM_P1;HPM_P2
2021/07/25 00:02:24;;;;;;;;;;;;;;;12.81;90.42;101153.66;5135221;27;19931;-72
2021/07/25 00:04:51;;;;;;;;;;;;;;;12.72;90.17;101157.66;5135015;27;20377;-71
2021/07/25 00:07:18;;;;;;;;;;;;;;;12.64;90.90;101152.88;5135142;27;19923;-72
2021/07/25 00:09:44;;;;;;;;;;;;;;;12.65;91.55;101166.75;5134982;27;19930;-71
2021/07/25 00:12:11;;;;;;;;;;;;;;;12.65;91.13;101164.13;5134977;27;20404;-71
2021/07/25 00:14:38;;;;;;;;;;;;;;;12.55;89.90;101170.81;5135044;27;19923;-71
2021/07/25 00:17:05;;;;;;;;;;;;;;;12.66;90.41;101167.59;5134780;27;20293;-72
2021/07/25 00:19:35;;;;;;;;;;;;;;;12.90;90.17;101165.34;5134889;27;19923;-71
2021/07/25 00:22:01;;;;;;;;;;;;;;;12.98;90.41;101166.56;5134671;27;20389;-71
2021/07/25 00:24:31;;;;;;;;;;;;;;;12.70;90.08;101164.72;5134990;27;19924;-71
2021/07/25 00:26:59;;;;;;;;;;;;;;;12.74;90.81;101173.19;5134925;27;19930;-71
2021/07/25 00:29:28;;;;;;;;;;;;;;;12.66;91.58;101172.81;5135040;27;19923;-71
2021/07/25 00:31:55;;;;;;;;;;;;;;;12.61;91.82;101168.72;5135156;27;19923;-71
2021/07/25 00:34:21;;;;;;;;;;;;;;;12.47;92.34;101171.25;5134619;27;19923;-71
2021/07/25 00:36:49;;;;;;;;;;;;;;;12.37;92.52;101167.47;5134670;27;20373;-71
2021/07/25 00:39:16;;;;;;;;;;;;;;;12.31;91.45;101173.03;5134530;27;19924;-71
2021/07/25 00:41:42;;;;;;;;;;;;;;;12.36;92.28;101174.47;5134728;27;19934;-71
2021/07/25 00:44:09;;;;;;;;;;;;;;;12.48;92.24;101177.31;5134652;27;20309;-72
2021/07/25 00:46:36;;;;;;;;;;;;;;;12.49;92.37;101176.41;5134014;27;19923;-71
2021/07/25 00:49:03;;;;;;;;;;;;;;;12.39;91.84;101176.06;5133623;27;19923;-72
2021/07/25 00:51:30;;;;;;;;;;;;;;;12.30;91.10;101182.59;5134265;27;20127;-71
2021/07/25 00:53:58;;;;;;;;;;;;;;;12.27;90.33;101181.94;5134770;27;19931;-71
2021/07/25 00:56:24;;;;;;;;;;;;;;;12.20;90.30;101178.81;5134047;27;19923;-71
2021/07/25 00:58:51;;;;;;;;;;;;;;;12.31;90.90;101178.25;5134289;27;20401;-71
2021/07/25 01:01:20;;;;;;;;;;;;;;;12.34;91.78;101180.69;5133969;27;20369;-71
2021/07/25 01:03:56;;;;;;;;;;;;;;;12.37;92.25;101178.75;5134308;27;20409;-71
2021/07/25 01:06:28;;;;;;;;;;;;;;;12.32;91.17;101179.94;5134051;27;20373;-71
2021/07/25 01:08:58;;;;;;;;;;;;;;;12.31;91.96;101178.25;5134234;27;19924;-71
2021/07/25 01:11:28;;;;;;;;;;;;;;;12.26;91.84;101177.66;5134120;27;19923;-71
2021/07/25 01:13:59;;;;;;;;;;;;;;;12.16;91.47;101174.72;5134383;27;19923;-71
2021/07/25 01:16:26;;;;;;;;;;;;;;;12.10;90.85;101177.66;5134433;27;19931;-71
2021/07/25 01:18:52;;;;;;;;;;;;;;;12.40;93.16;101177.72;5134033;27;19930;-71
2021/07/25 01:21:20;;;;;;;;;;;;;;;12.47;91.98;101181.69;5133876;27;19931;-71
2021/07/25 01:23:48;;;;;;;;;;;;;;;12.37;90.58;101183.97;5133965;27;19930;-71
2021/07/25 01:26:15;;;;;;;;;;;;;;;12.26;90.45;101178.50;5133972;27;19946;-71
2021/07/25 01:28:44;;;;;;;;;;;;;;;12.16;90.18;101183.38;5134220;27;19927;-71
2021/07/25 01:31:20;;;;;;;;;;;;;;;12.12;91.13;101181.03;5134018;27;19928;-71
2021/07/25 01:33:48;;;;;;;;;;;;;;;12.15;92.21;101189.53;5133788;27;19923;-71
2021/07/25 01:36:15;;;;;;;;;;;;;;;12.22;93.55;101192.63;5133505;27;20267;-71
2021/07/25 01:38:43;;;;;;;;;;;;;;;12.20;91.93;101190.13;5133663;27;19927;-71
2021/07/25 01:41:11;;;;;;;;;;;;;;;12.18;91.46;101185.91;5134005;27;19923;-71
2021/07/25 01:43:39;;;;;;;;;;;;;;;12.15;91.18;101192.16;5133549;27;19923;-71
2021/07/25 01:46:05;;;;;;;;;;;;;;;12.12;92.12;101192.28;5133563;27;19930;-71
2021/07/25 01:48:32;;;;;;;;;;;;;;;12.08;91.75;101182.13;5133158;27;19924;-71
2021/07/25 01:50:59;;;;;;;;;;;;;;;12.08;91.20;101193.41;5133899;27;19924;-71
2021/07/25 01:53:25;;;;;;;;;;;;;;;12.07;91.22;101191.69;5133307;27;19924;-71
2021/07/25 01:55:53;;;;;;;;;;;;;;;12.13;91.84;101193.16;5133384;27;19924;-71
2021/07/25 01:58:20;;;;;;;;;;;;;;;12.33;92.60;101187.69;5133416;28;19930;-72
2021/07/25 02:00:46;;;;;;;;;;;;;;;12.24;92.70;101192.56;5133512;27;19924;-71
2021/07/25 02:03:18;;;;;;;;;;;;;;;12.22;92.01;101189.19;5133318;28;19924;-71
2021/07/25 02:05:45;;;;;;;;;;;;;;;12.22;91.75;101197.84;5133731;28;19930;-71
2021/07/25 02:08:11;;;;;;;;;;;;;;;12.24;92.45;101189.94;5133687;28;19931;-71
2021/07/25 02:10:38;;;;;;;;;;;;;;;12.28;91.62;101186.22;5133366;28;19930;-71
2021/07/25 02:13:06;;;;;;;;;;;;;;;12.28;92.21;101191.44;5133368;28;19923;-71
2021/07/25 02:15:33;;;;;;;;;;;;;;;12.25;92.19;101192.47;5133292;28;19932;-71
2021/07/25 02:17:59;;;;;;;;;;;;;;;12.25;92.60;101205.50;5133519;28;19924;-72
2021/07/25 02:20:26;;;;;;;;;;;;;;;12.36;92.72;101205.78;5133296;28;19931;-71
2021/07/25 02:22:52;;;;;;;;;;;;;;;12.69;93.69;101194.38;5133149;28;20374;-71
2021/07/25 02:25:19;;;;;;;;;;;;;;;13.04;94.36;101201.94;5133257;28;19930;-72
2021/07/25 02:27:46;;;;;;;;;;;;;;;13.09;94.17;101210.34;5133170;28;20324;-71
2021/07/25 02:30:14;;;;;;;;;;;;;;;13.04;94.37;101209.78;5133502;28;19923;-71
2021/07/25 02:32:40;;;;;;;;;;;;;;;13.27;94.09;101213.69;5133386;28;19924;-71
2021/07/25 02:35:08;;;;;;;;;;;;;;;13.39;94.34;101215.59;5133392;28;19930;-72
2021/07/25 02:37:34;;;;;;;;;;;;;;;13.44;94.29;101218.75;5132682;28;20382;-71
2021/07/25 02:40:01;;;;;;;;;;;;;;;13.47;93.55;101213.34;5133336;28;19927;-72
2021/07/25 02:42:28;;;;;;;;;;;;;;;13.52;93.69;101218.31;5132858;28;19923;-72
2021/07/25 02:44:54;;;;;;;;;;;;;;;13.48;93.46;101215.00;5132918;28;19923;-71
2021/07/25 02:47:22;;;;;;;;;;;;;;;13.46;93.72;101216.91;5132495;28;20293;-71
2021/07/25 02:49:49;;;;;;;;;;;;;;;13.50;93.93;101213.16;5133001;28;19931;-71
2021/07/25 02:52:15;;;;;;;;;;;;;;;13.76;92.93;101218.59;5133035;28;19923;-71
2021/07/25 02:54:42;;;;;;;;;;;;;;;14.00;91.87;101215.38;5133174;28;19928;-71
2021/07/25 02:57:08;;;;;;;;;;;;;;;14.09;92.06;101217.44;5132826;28;19924;-72
2021/07/25 02:59:35;;;;;;;;;;;;;;;14.25;90.83;101217.31;5132704;28;20399;-71
2021/07/25 03:02:01;;;;;;;;;;;;;;;14.12;90.93;101212.03;5133145;28;19934;-71
2021/07/25 03:04:29;;;;;;;;;;;;;;;14.18;91.10;101214.28;5132584;28;19924;-72
2021/07/25 03:06:56;;;;;;;;;;;;;;;14.18;91.05;101211.66;5132764;28;19924;-72
2021/07/25 03:09:23;;;;;;;;;;;;;;;14.14;91.40;101218.84;5132845;28;20037;-72
2021/07/25 03:11:49;;;;;;;;;;;;;;;14.34;90.73;101214.13;5133747;27;19924;-72
2021/07/25 03:14:16;;;;;;;;;;;;;;;14.36;90.61;101217.50;5136832;27;19923;-72
2021/07/25 03:16:42;;;;;;;;;;;;;;;14.67;89.25;101215.53;5136283;27;19927;-72
2021/07/25 03:19:09;;;;;;;;;;;;;;;14.78;88.69;101220.94;5136300;27;20297;-72
2021/07/25 03:21:37;;;;;;;;;;;;;;;14.67;89.29;101220.78;5136212;27;19924;-72
2021/07/25 03:24:04;;;;;;;;;;;;;;;14.71;89.50;101230.97;5136538;27;19923;-71
2021/07/25 03:26:31;;;;;;;;;;;;;;;14.77;89.01;101225.34;5136223;27;19923;-71
2021/07/25 03:28:57;;;;;;;;;;;;;;;15.05;87.86;101222.66;5136140;27;19924;-72
2021/07/25 03:31:24;;;;;;;;;;;;;;;15.08;87.77;101222.47;5135774;27;19923;-72
2021/07/25 03:33:50;;;;;;;;;;;;;;;14.98;88.13;101225.72;5136298;27;20014;-72
2021/07/25 03:36:17;;;;;;;;;;;;;;;15.02;87.36;101223.72;5136134;27;19924;-71
2021/07/25 03:38:45;;;;;;;;;;;;;;;15.09;87.12;101213.69;5135891;27;19938;-72
2021/07/25 03:41:11;;;;;;;;;;;;;;;15.17;86.44;101219.25;5136130;27;19935;-72
2021/07/25 03:43:38;;;;;;;;;;;;;;;15.23;84.98;101222.31;5135889;27;19923;-72
2021/07/25 03:46:05;;;;;;;;;;;;;;;15.37;84.15;101221.34;5136149;27;19930;-71
2021/07/25 03:48:31;;;;;;;;;;;;;;;15.33;84.77;101225.13;5135382;27;19931;-71
2021/07/25 03:50:58;;;;;;;;;;;;;;;15.32;84.49;101223.44;5136290;27;19923;-71
2021/07/25 03:53:24;;;;;;;;;;;;;;;15.38;83.17;101223.03;5135777;27;19946;-71
2021/07/25 03:55:53;;;;;;;;;;;;;;;15.29;83.99;101220.22;5135646;27;19939;-71
2021/07/25 03:58:19;;;;;;;;;;;;;;;15.31;83.80;101221.78;5135224;27;20293;-71
2021/07/25 04:00:46;;;;;;;;;;;;;;;15.27;83.62;101224.72;5135795;27;19923;-71
2021/07/25 04:03:12;;;;;;;;;;;;;;;15.54;82.27;101219.34;5135811;27;19927;-71
2021/07/25 04:05:39;;;;;;;;;;;;;;;15.50;82.23;101220.53;5135843;27;19924;-71
2021/07/25 04:08:09;;;;;;;;;;;;;;;15.40;82.73;101226.38;5135662;27;19931;-71
2021/07/25 04:10:39;;;;;;;;;;;;;;;15.58;81.92;101224.31;5135068;27;19924;-72
2021/07/25 04:13:07;;;;;;;;;;;;;;;15.57;81.81;101222.63;5135927;27;19931;-73
2021/07/25 04:15:37;;;;;;;;;;;;;;;15.60;81.47;101229.44;5135662;27;19927;-72
2021/07/25 04:18:04;;;;;;;;;;;;;;;15.56;82.12;101226.19;5135747;27;19930;-72
2021/07/25 04:20:31;;;;;;;;;;;;;;;15.67;81.18;101228.09;5134892;27;20289;-72
2021/07/25 04:22:57;;;;;;;;;;;;;;;15.56;81.21;101231.44;5135315;27;19923;-71
2021/07/25 04:25:24;;;;;;;;;;;;;;;15.55;81.58;101228.94;5134749;27;20373;-71
2021/07/25 04:27:51;;;;;;;;;;;;;;;15.59;81.48;101235.63;5134944;27;19923;-72
2021/07/25 04:30:20;;;;;;;;;;;;;;;15.77;80.82;101238.78;5134716;27;20015;-73
2021/07/25 04:32:47;;;;;;;;;;;;;;;15.85;80.33;101237.34;5134905;27;19931;-72
2021/07/25 04:35:14;;;;;;;;;;;;;;;15.81;80.04;101243.72;5135128;27;19931;-71
2021/07/25 04:37:48;;;;;;;;;;;;;;;15.88;79.96;101244.16;5134976;27;19924;-72
2021/07/25 04:40:15;;;;;;;;;;;;;;;15.98;79.05;101239.94;5134757;27;19923;-71
2021/07/25 04:42:45;;;;;;;;;;;;;;;16.03;79.18;101245.72;5134733;27;20377;-71
2021/07/25 04:45:16;;;;;;;;;;;;;;;16.14;78.63;101239.69;5134852;27;19930;-71
2021/07/25 04:47:47;;;;;;;;;;;;;;;16.28;77.83;101242.16;5134404;27;20425;-71
2021/07/25 04:50:16;;;;;;;;;;;;;;;16.26;78.15;101237.97;5134628;27;19923;-71
2021/07/25 04:52:43;;;;;;;;;;;;;;;16.32;77.47;101241.00;5134857;27;19965;-71
2021/07/25 04:55:12;;;;;;;;;;;;;;;16.46;75.72;101247.88;5134613;27;19930;-71
2021/07/25 04:57:43;;;;;;;;;;;;;;;16.52;75.66;101244.00;5134406;27;19923;-71
2021/07/25 05:00:10;;;;;;;;;;;;;;;16.61;75.57;101238.06;5134405;27;19923;-72
2021/07/25 05:02:38;;;;;;;;;;;;;;;16.80;74.57;101245.50;5134146;27;20066;-71
2021/07/25 05:05:07;;;;;;;;;;;;;;;17.15;73.43;101252.53;5134571;27;20015;-71
2021/07/25 05:07:35;;;;;;;;;;;;;;;17.15;73.37;101250.75;5134064;27;19927;-71
2021/07/25 05:10:02;;;;;;;;;;;;;;;17.12;73.09;101248.34;5134136;27;19924;-71
2021/07/25 05:12:32;;;;;;;;;;;;;;;17.57;70.93;101252.88;5134263;27;19958;-71
2021/07/25 05:15:00;;;;;;;;;;;;;;;17.73;69.30;101261.28;5134090;27;19930;-71
2021/07/25 05:17:31;;;;;;;;;;;;;;;17.76;68.43;101260.19;5133873;27;20405;-71
2021/07/25 05:20:01;;;;;;;;;;;;;;;17.70;68.36;101264.16;5133856;27;20361;-71
2021/07/25 05:22:34;;;;;;;;;;;;;;;17.60;68.07;101260.56;5133779;27;19923;-71
2021/07/25 05:25:03;;;;;;;;;;;;;;;17.54;67.52;101255.75;5133954;27;20298;-71
2021/07/25 05:27:34;;;;;;;;;;;;;;;17.42;69.33;101263.63;5133990;27;19947;-71
2021/07/25 05:30:01;;;;;;;;;;;;;;;17.62;68.63;101267.38;5133978;27;19923;-71
2021/07/25 05:32:27;;;;;;;;;;;;;;;17.49;70.02;101269.22;5133488;27;20312;-71
2021/07/25 05:34:54;;;;;;;;;;;;;;;17.82;69.52;101276.38;5133574;27;19951;-71
2021/07/25 05:37:20;;;;;;;;;;;;;;;17.54;71.27;101277.63;5133749;27;19923;-71
2021/07/25 05:39:48;;;;;;;;;;;;;;;17.74;70.24;101288.44;5133971;27;19924;-71
2021/07/25 05:42:15;;;;;;;;;;;;;;;17.48;71.68;101282.53;5133715;27;19923;-71
2021/07/25 05:44:41;;;;;;;;;;;;;;;17.46;72.56;101294.94;5133685;27;19924;-71
2021/07/25 05:47:08;;;;;;;;;;;;;;;17.72;70.96;101295.59;5133315;27;20297;-71
2021/07/25 05:49:34;;;;;;;;;;;;;;;17.88;71.02;101293.50;5133238;27;20444;-71
2021/07/25 05:52:01;;;;;;;;;;;;;;;17.89;70.95;101292.53;5133845;27;20039;-71
2021/07/25 05:54:28;;;;;;;;;;;;;;;17.44;72.38;101295.03;5133454;27;19923;-71
2021/07/25 05:56:56;;;;;;;;;;;;;;;17.41;71.98;101296.13;5133787;27;19923;-71
2021/07/25 05:59:22;;;;;;;;;;;;;;;17.54;71.91;101316.25;5133456;28;19931;-71
2021/07/25 06:01:49;;;;;;;;;;;;;;;17.86;71.09;101302.47;5133538;27;19930;-72
2021/07/25 06:04:16;;;;;;;;;;;;;;;18.09;70.45;101309.44;5133201;28;19924;-72
2021/07/25 06:06:42;;;;;;;;;;;;;;;18.30;69.31;101303.44;5133398;28;19930;-71
2021/07/25 06:09:09;;;;;;;;;;;;;;;18.47;68.75;101303.78;5133671;28;19946;-72
2021/07/25 06:11:35;;;;;;;;;;;;;;;18.27;68.04;101304.50;5133203;28;19927;-71
2021/07/25 06:14:04;;;;;;;;;;;;;;;18.36;69.27;101314.31;5133327;28;19924;-71
2021/07/25 06:16:30;;;;;;;;;;;;;;;18.63;67.88;101324.47;5133333;28;19976;-72
2021/07/25 06:18:57;;;;;;;;;;;;;;;18.73;67.66;101319.28;5133235;28;19935;-72
2021/07/25 06:21:26;;;;;;;;;;;;;;;18.80;66.66;101317.00;5133026;28;20409;-71
2021/07/25 06:23:53;;;;;;;;;;;;;;;18.75;66.77;101320.03;5133496;28;19927;-72
2021/07/25 06:26:20;;;;;;;;;;;;;;;18.57;66.47;101322.28;5133284;28;19976;-71
2021/07/25 06:28:46;;;;;;;;;;;;;;;18.28;67.59;101314.09;5133455;28;19931;-71
2021/07/25 06:31:15;;;;;;;;;;;;;;;18.29;67.39;101321.03;5133201;28;19923;-71
2021/07/25 06:33:41;;;;;;;;;;;;;;;17.91;68.86;101322.22;5133339;28;19930;-72
2021/07/25 06:36:10;;;;;;;;;;;;;;;17.98;67.87;101318.16;5133132;28;19924;-71
2021/07/25 06:38:37;;;;;;;;;;;;;;;18.00;67.39;101318.84;5132814;28;19931;-71
2021/07/25 06:41:04;;;;;;;;;;;;;;;18.07;66.31;101327.13;5133113;28;20331;-71
2021/07/25 06:43:30;;;;;;;;;;;;;;;17.92;67.98;101317.78;5133067;28;19924;-71
2021/07/25 06:45:57;;;;;;;;;;;;;;;18.19;67.60;101326.19;5132975;27;20397;-72
2021/07/25 06:48:26;;;;;;;;;;;;;;;18.32;66.63;101323.44;5135930;27;19923;-71
2021/07/25 06:50:53;;;;;;;;;;;;;;;18.65;65.28;101335.72;5137257;27;19924;-71
2021/07/25 06:53:20;;;;;;;;;;;;;;;18.74;65.38;101334.13;5136540;27;19929;-72
2021/07/25 06:55:48;;;;;;;;;;;;;;;19.10;62.17;101345.34;5136791;27;20288;-71
2021/07/25 06:58:15;;;;;;;;;;;;;;;19.02;62.30;101338.06;5136387;27;20407;-71
2021/07/25 07:00:41;;;;;;;;;;;;;;;19.45;59.91;101344.25;5137039;27;19930;-72
2021/07/25 07:03:08;;;;;;;;;;;;;;;19.52;60.48;101335.69;5136882;27;19923;-71
2021/07/25 07:05:36;;;;;;;;;;;;;;;19.43;58.94;101352.28;5136747;27;19928;-71
2021/07/25 07:08:03;;;;;;;;;;;;;;;19.14;59.92;101347.59;5136588;27;19923;-71
2021/07/25 07:10:31;;;;;;;;;;;;;;;19.49;57.16;101354.38;5136902;27;19930;-71
2021/07/25 07:12:59;;;;;;;;;;;;;;;19.70;56.89;101354.44;5136305;27;20377;-71
2021/07/25 07:15:26;;;;;;;;;;;;;;;20.01;56.68;101357.09;5136203;27;19927;-71
2021/07/25 07:17:53;;;;;;;;;;;;;;;20.08;58.73;101365.34;5136447;27;19930;-71
2021/07/25 07:20:20;;;;;;;;;;;;;;;20.38;57.47;101361.88;5136053;27;19930;-71
2021/07/25 07:22:52;;;;;;;;;;;;;;;20.46;58.32;101362.03;5136263;27;19930;-71
2021/07/25 07:25:19;;;;;;;;;;;;;;;20.51;58.51;101356.38;5136065;27;19969;-72
2021/07/25 07:27:46;;;;;;;;;;;;;;;21.15;56.74;101358.59;5136408;27;19923;-72
2021/07/25 07:30:13;;;;;;;;;;;;;;;20.90;57.93;101356.47;5136438;27;19923;-71
2021/07/25 07:32:40;;;;;;;;;;;;;;;20.69;59.49;101354.78;5136023;27;19924;-71
2021/07/25 07:35:07;;;;;;;;;;;;;;;20.55;60.42;101350.72;5136075;27;19937;-71
2021/07/25 07:37:33;;;;;;;;;;;;;;;20.85;59.50;101354.25;5135974;27;19923;-72
2021/07/25 07:40:02;;;;;;;;;;;;;;;20.72;59.66;101354.50;5136470;27;19930;-72
2021/07/25 07:42:29;;;;;;;;;;;;;;;20.85;58.21;101351.59;5135715;27;19928;-72
2021/07/25 07:44:56;;;;;;;;;;;;;;;21.33;56.63;101360.56;5136114;27;19927;-72
2021/07/25 07:47:23;;;;;;;;;;;;;;;21.28;57.74;101363.63;5135397;27;19923;-71
2021/07/25 07:49:49;;;;;;;;;;;;;;;22.79;52.65;101359.16;5135981;27;19927;-72
2021/07/25 07:52:16;;;;;;;;;;;;;;;23.19;52.16;101363.22;5135736;27;19967;-71
2021/07/25 07:54:43;;;;;;;;;;;;;;;23.45;50.84;101368.59;5135697;27;19938;-72
2021/07/25 07:57:12;;;;;;;;;;;;;;;22.96;51.88;101364.63;5135758;27;19931;-71
2021/07/25 07:59:38;;;;;;;;;;;;;;;23.17;52.47;101370.50;5135223;27;19924;-72
2021/07/25 08:02:05;;;;;;;;;;;;;;;23.49;49.90;101371.78;5135485;27;19927;-72
2021/07/25 08:04:32;;;;;;;;;;;;;;;24.71;47.75;101369.00;5135261;27;19931;-72
2021/07/25 08:06:58;;;;;;;;;;;;;;;23.60;48.59;101378.66;5135745;27;19923;-72
2021/07/25 08:09:25;;;;;;;;;;;;;;;24.45;47.54;101378.88;5135460;27;19927;-72
2021/07/25 08:11:53;;;;;;;;;;;;;;;24.20;44.18;101378.75;5135279;27;19923;-72
2021/07/25 08:14:21;;;;;;;;;;;;;;;24.44;43.48;101385.16;5134971;27;19923;-72
2021/07/25 08:16:48;;;;;;;;;;;;;;;24.49;44.51;101383.72;5135262;27;19923;-72
2021/07/25 08:19:16;;;;;;;;;;;;;;;24.41;42.78;101378.34;5134899;27;19939;-72
2021/07/25 08:21:43;;;;;;;;;;;;;;;24.33;43.64;101383.63;5135078;27;20412;-71
2021/07/25 08:24:10;;;;;;;;;;;;;;;24.30;43.69;101387.44;5135396;27;19923;-71
2021/07/25 08:26:37;;;;;;;;;;;;;;;24.76;41.11;101379.16;5134693;27;19930;-71
2021/07/25 08:29:03;;;;;;;;;;;;;;;24.48;43.72;101383.88;5134908;27;19930;-71
2021/07/25 08:31:31;;;;;;;;;;;;;;;25.51;39.76;101376.47;5135049;27;19930;-71
2021/07/25 08:33:58;;;;;;;;;;;;;;;25.58;39.80;101382.75;5135244;27;19923;-72
2021/07/25 08:36:25;;;;;;;;;;;;;;;25.84;39.10;101379.06;5134551;27;19924;-72
2021/07/25 08:38:52;;;;;;;;;;;;;;;25.47;41.57;101385.78;5134759;27;20293;-71
2021/07/25 08:41:28;;;;;;;;;;;;;;;25.82;41.88;101386.41;5134768;27;19923;-71
2021/07/25 08:44:04;;;;;;;;;;;;;;;27.21;38.93;101383.22;5134803;27;19927;-72
2021/07/25 08:46:32;;;;;;;;;;;;;;;27.43;37.93;101386.03;5134286;27;19924;-71
2021/07/25 08:48:59;;;;;;;;;;;;;;;26.50;40.39;101383.22;5134877;27;19923;-72
2021/07/25 08:51:31;;;;;;;;;;;;;;;27.31;38.63;101383.78;5134672;27;19928;-72
2021/07/25 08:53:59;;;;;;;;;;;;;;;26.28;40.58;101386.63;5134799;27;19930;-72
2021/07/25 08:56:28;;;;;;;;;;;;;;;26.01;40.23;101387.91;5134639;27;19968;-71
2021/07/25 08:58:57;;;;;;;;;;;;;;;25.81;40.61;101385.56;5134299;27;19972;-72
2021/07/25 09:01:28;;;;;;;;;;;;;;;26.16;40.08;101391.53;5134460;27;19931;-71
2021/07/25 09:03:56;;;;;;;;;;;;;;;27.45;39.85;101397.38;5134343;27;19934;-72
2021/07/25 09:06:24;;;;;;;;;;;;;;;26.70;40.43;101389.00;5134082;27;19978;-72
2021/07/25 09:08:51;;;;;;;;;;;;;;;24.20;45.31;101393.84;5134256;27;19924;-72
2021/07/25 09:11:19;;;;;;;;;;;;;;;23.95;46.96;101388.41;5133701;27;19923;-71
2021/07/25 09:13:46;;;;;;;;;;;;;;;24.22;46.54;101397.19;5134546;27;19950;-71
2021/07/25 09:16:12;;;;;;;;;;;;;;;24.82;44.85;101389.16;5134489;27;19930;-71
2021/07/25 09:18:39;;;;;;;;;;;;;;;25.72;42.91;101397.25;5134178;27;19924;-71
2021/07/25 09:21:07;;;;;;;;;;;;;;;25.93;43.01;101394.09;5133905;27;19932;-71
2021/07/25 09:23:33;;;;;;;;;;;;;;;28.46;38.57;101400.56;5133805;27;19943;-72
2021/07/25 09:26:00;;;;;;;;;;;;;;;27.75;38.15;101406.31;5133875;27;20369;-72
2021/07/25 09:28:29;;;;;;;;;;;;;;;27.89;39.48;101400.16;5134000;27;19923;-72
2021/07/25 09:30:56;;;;;;;;;;;;;;;27.94;39.50;101407.63;5134473;27;19927;-72
2021/07/25 09:33:24;;;;;;;;;;;;;;;28.32;40.15;101408.38;5133489;27;20382;-72
2021/07/25 09:35:51;;;;;;;;;;;;;;;28.63;38.35;101408.19;5134150;27;19924;-72
2021/07/25 09:38:19;;;;;;;;;;;;;;;28.17;40.07;101411.06;5133509;27;19923;-72
2021/07/25 09:40:47;;;;;;;;;;;;;;;27.96;42.23;101411.78;5133631;27;20300;-72
2021/07/25 09:43:15;;;;;;;;;;;;;;;26.39;40.60;101407.63;5133999;27;19923;-72
2021/07/25 09:46:00;;;;;;;;;;;;;;;25.09;46.13;101404.00;5133930;27;19924;-72
2021/07/25 09:48:27;;;;;;;;;;;;;;;24.04;46.84;101410.53;5133095;27;19927;-72
2021/07/25 09:50:55;;;;;;;;;;;;;;;25.41;43.85;101416.56;5133549;27;19923;-72
2021/07/25 09:53:23;;;;;;;;;;;;;;;25.26;43.53;101420.06;5133263;27;19931;-71
2021/07/25 09:55:49;;;;;;;;;;;;;;;26.40;42.22;101427.94;5133448;27;19930;-72
2021/07/25 09:58:16;;;;;;;;;;;;;;;27.23;40.89;101428.41;5133419;27;19928;-72
2021/07/25 10:00:44;;;;;;;;;;;;;;;28.19;38.70;101434.97;5133641;28;19923;-72
2021/07/25 10:03:23;;;;;;;;;;;;;;;29.20;35.08;101425.31;5133761;28;19985;-72
2021/07/25 10:05:50;;;;;;;;;;;;;;;30.38;32.40;101436.38;5133337;28;19970;-72
2021/07/25 10:08:17;;;;;;;;;;;;;;;28.87;34.72;101432.97;5133092;28;19927;-72
2021/07/25 10:10:46;;;;;;;;;;;;;;;27.89;36.56;101426.06;5133585;28;19934;-72
2021/07/25 10:13:14;;;;;;;;;;;;;;;28.48;36.09;101434.16;5133349;28;19930;-72
2021/07/25 10:15:41;;;;;;;;;;;;;;;29.11;34.91;101429.16;5133193;28;19931;-72
2021/07/25 10:18:09;;;;;;;;;;;;;;;29.59;33.87;101440.09;5133460;28;19930;-72
2021/07/25 10:20:35;;;;;;;;;;;;;;;28.22;36.78;101435.41;5133604;27;19934;-72
2021/07/25 10:23:02;;;;;;;;;;;;;;;27.72;38.73;101439.56;5137470;27;19925;-72
2021/07/25 10:25:29;;;;;;;;;;;;;;;29.15;36.13;101432.28;5137155;27;19923;-72
2021/07/25 10:27:59;;;;;;;;;;;;;;;29.78;33.50;101427.94;5137660;27;19932;-72
2021/07/25 10:30:27;;;;;;;;;;;;;;;30.95;31.95;101432.47;5136867;27;19930;-72
2021/07/25 10:32:56;;;;;;;;;;;;;;;30.73;33.57;101439.84;5137577;27;19927;-72
2021/07/25 10:35:24;;;;;;;;;;;;;;;33.14;29.72;101431.34;5137080;27;19923;-71
2021/07/25 10:37:54;;;;;;;;;;;;;;;30.48;32.71;101428.78;5137213;27;19923;-70
2021/07/25 10:40:23;;;;;;;;;;;;;;;30.70;29.67;101425.97;5136604;27;20441;-70
2021/07/25 10:42:50;;;;;;;;;;;;;;;31.57;29.70;101427.00;5137003;27;20333;-72
2021/07/25 10:45:19;;;;;;;;;;;;;;;31.87;30.29;101433.59;5136798;27;19927;-71
2021/07/25 10:47:47;;;;;;;;;;;;;;;31.25;31.05;101432.97;5136708;27;19924;-71
2021/07/25 10:50:17;;;;;;;;;;;;;;;31.28;31.43;101436.28;5137296;27;19931;-72
2021/07/25 10:53:00;;;;;;;;;;;;;;;30.33;31.99;101436.97;5137306;27;19923;-72
2021/07/25 10:55:46;;;;;;;;;;;;;;;27.48;38.13;101431.75;5136512;27;19927;-71
2021/07/25 10:58:13;;;;;;;;;;;;;;;26.79;40.91;101439.66;5136836;27;19923;-71
2021/07/25 11:00:42;;;;;;;;;;;;;;;27.77;37.91;101450.56;5137308;27;19988;-72
2021/07/25 11:03:10;;;;;;;;;;;;;;;28.20;37.47;101448.13;5137011;27;19927;-71
2021/07/25 11:06:02;;;;;;;;;;;;;;;28.30;38.10;101447.88;5136764;27;19934;-72
2021/07/25 11:08:32;;;;;;;;;;;;;;;29.76;35.13;101448.75;5136228;27;19930;-72
2021/07/25 11:10:58;;;;;;;;;;;;;;;29.52;32.93;101450.78;5136637;27;19927;-72
2021/07/25 11:13:38;;;;;;;;;;;;;;;30.92;32.22;101446.31;5136296;27;20293;-72
2021/07/25 11:16:34;;;;;;;;;;;;;;;31.84;29.63;101450.16;5136541;27;20381;-72
2021/07/25 11:19:01;;;;;;;;;;;;;;;32.82;27.52;101452.00;5136282;27;20288;-71
2021/07/25 11:21:30;;;;;;;;;;;;;;;32.17;27.14;101452.03;5136033;27;19924;-70
2021/07/25 11:23:57;;;;;;;;;;;;;;;30.80;28.20;101447.91;5136527;27;19933;-70
2021/07/25 11:26:43;;;;;;;;;;;;;;;31.44;27.63;101452.03;5136017;27;19924;-70
2021/07/25 11:29:17;;;;;;;;;;;;;;;31.57;27.92;101453.91;5136409;27;19924;-70
2021/07/25 11:31:46;;;;;;;;;;;;;;;32.20;26.06;101454.28;5136101;27;19930;-70
2021/07/25 11:34:14;;;;;;;;;;;;;;;33.80;25.04;101446.16;5135527;27;19924;-70
2021/07/25 11:36:40;;;;;;;;;;;;;;;29.38;29.39;101453.53;5136107;27;20300;-70
2021/07/25 11:39:08;;;;;;;;;;;;;;;30.42;27.13;101458.25;5136197;27;19935;-70
2021/07/25 11:41:35;;;;;;;;;;;;;;;31.98;26.26;101461.75;5135692;27;19923;-70
2021/07/25 11:44:03;;;;;;;;;;;;;;;33.17;23.89;101474.03;5136144;27;19946;-70
2021/07/25 11:46:31;;;;;;;;;;;;;;;33.51;24.19;101468.41;5135737;27;19923;-70
2021/07/25 11:49:06;;;;;;;;;;;;;;;31.87;25.00;101460.50;5135747;27;20400;-71
2021/07/25 11:51:33;;;;;;;;;;;;;;;34.19;22.57;101464.91;5135855;27;19923;-70
2021/07/25 11:54:00;;;;;;;;;;;;;;;33.39;24.21;101463.69;5135627;27;20373;-71
2021/07/25 11:56:27;;;;;;;;;;;;;;;31.54;26.20;101460.50;5135684;27;19923;-70
2021/07/25 11:59:04;;;;;;;;;;;;;;;30.05;27.62;101455.75;5135600;27;19931;-71
2021/07/25 12:01:31;;;;;;;;;;;;;;;31.06;28.11;101467.84;5135155;27;19923;-70
2021/07/25 12:03:57;;;;;;;;;;;;;;;28.48;34.13;101470.78;5135728;27;19927;-72
2021/07/25 12:06:25;;;;;;;;;;;;;;;31.24;30.35;101468.13;5135169;27;19923;-72
2021/07/25 12:09:09;;;;;;;;;;;;;;;31.12;31.85;101475.94;5135423;27;20396;-72
2021/07/25 12:11:36;;;;;;;;;;;;;;;29.45;33.44;101468.66;5135169;27;19924;-72
2021/07/25 12:14:03;;;;;;;;;;;;;;;29.35;33.57;101468.13;5135585;27;19923;-72
2021/07/25 12:16:46;;;;;;;;;;;;;;;29.67;32.46;101468.66;5135292;27;19924;-72
2021/07/25 12:19:13;;;;;;;;;;;;;;;31.24;31.68;101473.50;5135539;27;19930;-72
2021/07/25 12:21:41;;;;;;;;;;;;;;;31.02;31.65;101470.13;5134844;27;19924;-72
2021/07/25 12:24:22;;;;;;;;;;;;;;;32.67;29.92;101473.00;5135466;27;19927;-72
2021/07/25 12:26:49;;;;;;;;;;;;;;;33.23;25.44;101480.41;5134848;27;20373;-71
2021/07/25 12:29:34;;;;;;;;;;;;;;;32.32;27.36;101474.13;5134695;27;19924;-70
2021/07/25 12:32:01;;;;;;;;;;;;;;;31.80;28.17;101473.13;5135298;27;19924;-70
2021/07/25 12:34:27;;;;;;;;;;;;;;;31.62;29.58;101483.69;5135023;27;19927;-70
2021/07/25 12:36:55;;;;;;;;;;;;;;;28.09;33.73;101486.06;5134773;27;19931;-70
2021/07/25 12:39:22;;;;;;;;;;;;;;;26.75;37.93;101486.41;5134633;27;19930;-72
2021/07/25 12:41:48;;;;;;;;;;;;;;;27.58;38.42;101483.94;5135023;27;19924;-72